Aeroporto :
LOGIN :

Iscrizione | Disclaimer

   EN    FR    IT 

 










Sommario :    VFR   VFR Marginale   IFR   IFR Intensivo   IFR Molto Intensivo
Visibilità : 
Base nubi : 
>= 8 km
>= 3000ft
5 / 8 km
1000 / 3000 ft
1500m / 5 km
500 / 1000 ft
800 / 1500m
200 / 500 ft
< 800m
< 200 ft
Simboli :   Temporali  Nebbia  Neve Forte  Precipitazioni Forti  Vento > 20 kt
SIGMETs :   Varie  Temporali  Ghiacco  Turbolenza  Onda orograficha  Ceneri Vulcaniche







- Altitudine del aeroporto : 274 ft
- Codice IATA : PUY


LDPL - Pula

ULTIMO METAR :
  • 210700Z 00000KT 2800 MIFG BR NSC 01/01 Q1027 NOSIG

METARs OBSOLETI :
  • 210630Z VRB01KT 1800 MIFG BR NSC 01/00 Q1027 NOSIG
  • 210600Z 00000KT 2000 BR NSC 00/M00 Q1026 NOSIG
  • 210530Z VRB01KT 2600 BR NSC 00/M00 Q1026 TEMPO 0800 FG
  • 210500Z 00000KT 1600 BR NSC 00/M00 Q1026 TEMPO 0800 FG
  • 210430Z VRB01KT 1600 R27/1200D BR NSC 01/00 Q1026 TEMPO 0800 FG

TAF TAF LDPL
Valido dal 21 a 06 ore il 22 a 06 ore UTC


210525Z 2106/2206 VRB02KT 2000 BR SCT005 TX12/2113Z TN03/2106Z
PROB30
TEMPO 2106/2108 0400 FG BKN003
BECMG 2108/2110 8000 NSW
PROB40
TEMPO 2116/2206 2000 BR BKN005
Nessun NOTAM noto per questo aeroporto.



MetMap, La meteo Aeronautica in un colpo d'occhio ! - Copyright ORBIFLY Dicembre 2007 - Disclaimer

ORBIFLY MET'MAP TEAM :

Programmazione e sviluppo : Alexandra Zaïnal
Concezione e sviluppo : Baudouin d'Aumeries
Co-Programmazione e sviluppo : Marc-Olivier Méhu
Supporto tecnico e logistico : Manuel Goepfert
Aiuto per la traduzione : Arnaldo La Scala

Contatto : metmap@orbifly.com




FONTI E CREDITI :

   NOAA